createdAt,value
2022-11-26T00:02:21.380Z,26.37
2022-11-26T00:05:25.373Z,27.90
2022-11-26T00:08:31.730Z,27.10
2022-11-26T00:11:34.655Z,32.40
2022-11-26T00:14:37.820Z,31.93
2022-11-26T00:17:42.419Z,32.83
2022-11-26T00:20:46.453Z,31.57
2022-11-26T00:23:49.624Z,36.93
2022-11-26T00:26:52.747Z,35.37
2022-11-26T00:29:55.960Z,35.07
2022-11-26T00:33:00.456Z,30.97
2022-11-26T00:36:07.952Z,40.83
2022-11-26T00:39:16.714Z,31.73
2022-11-26T00:42:20.375Z,42.37
2022-11-26T00:45:25.479Z,37.07
2022-11-26T00:48:29.750Z,40.10
2022-11-26T00:51:32.807Z,43.20
2022-11-26T00:54:35.971Z,44.03
2022-11-26T00:57:39.128Z,41.07
2022-11-26T01:00:42.120Z,37.87
2022-11-26T01:03:46.618Z,40.23
2022-11-26T01:06:49.579Z,40.67
2022-11-26T01:09:52.531Z,35.43
2022-11-26T01:12:56.805Z,36.63
2022-11-26T01:16:01.857Z,37.13
2022-11-26T01:19:11.738Z,40.83
2022-11-26T01:22:21.308Z,37.83
2022-11-26T01:25:26.677Z,39.53
2022-11-26T01:28:29.675Z,40.00
2022-11-26T01:31:33.235Z,41.40
2022-11-26T01:34:37.943Z,39.93
2022-11-26T01:37:41.318Z,40.30
2022-11-26T01:41:00.605Z,35.87
2022-11-26T01:44:05.467Z,48.47
2022-11-26T01:47:22.408Z,33.67
2022-11-26T01:50:53.631Z,39.37
2022-11-26T01:53:59.992Z,43.00
2022-11-26T01:57:09.988Z,43.50
2022-11-26T02:00:14.172Z,46.00
2022-11-26T02:03:17.409Z,44.23
2022-11-26T02:06:25.820Z,42.77
2022-11-26T02:09:30.356Z,41.30
2022-11-26T02:12:33.715Z,49.13
2022-11-26T02:15:46.119Z,44.30
2022-11-26T02:19:00.018Z,46.90
2022-11-26T02:22:13.262Z,55.67
2022-11-26T02:25:21.026Z,45.10
2022-11-26T02:28:43.124Z,52.17
2022-11-26T02:31:52.804Z,55.53
2022-11-26T02:34:59.937Z,67.47
2022-11-26T02:38:06.432Z,44.20
2022-11-26T02:41:09.355Z,47.50
2022-11-26T02:44:12.872Z,52.23
2022-11-26T02:47:21.055Z,56.47
2022-11-26T02:50:28.465Z,50.40
2022-11-26T02:53:33.851Z,53.63
2022-11-26T02:56:37.253Z,51.40
2022-11-26T02:59:40.741Z,64.73
2022-11-26T03:02:48.502Z,64.77
2022-11-26T03:05:54.897Z,75.90
2022-11-26T03:08:58.014Z,59.97
2022-11-26T03:12:01.008Z,63.37
2022-11-26T03:15:04.423Z,65.63
2022-11-26T03:18:08.892Z,53.80
2022-11-26T03:21:11.781Z,56.80
2022-11-26T03:24:14.768Z,57.30
2022-11-26T03:27:17.651Z,50.47
2022-11-26T03:30:20.883Z,63.60
2022-11-26T03:33:25.138Z,60.07
2022-11-26T03:36:28.129Z,59.77
2022-11-26T03:39:31.220Z,69.83
2022-11-26T03:42:34.176Z,59.80
2022-11-26T03:45:37.118Z,49.03
2022-11-26T03:48:41.560Z,68.90
2022-11-26T03:51:44.535Z,62.23
2022-11-26T03:54:47.431Z,67.40
2022-11-26T03:57:50.352Z,62.47
2022-11-26T04:00:53.342Z,74.23
2022-11-26T04:03:57.618Z,68.53
2022-11-26T04:07:00.566Z,86.87
2022-11-26T04:10:03.811Z,87.33
2022-11-26T04:13:06.766Z,75.90
2022-11-26T04:16:10.472Z,80.57
2022-11-26T04:19:14.896Z,77.57
2022-11-26T04:22:17.789Z,72.93
2022-11-26T04:25:20.724Z,74.87
2022-11-26T04:28:23.638Z,74.20
2022-11-26T04:31:26.609Z,80.23
2022-11-26T04:34:31.062Z,71.63
2022-11-26T04:37:34.057Z,67.90
2022-11-26T04:40:37.391Z,73.23
2022-11-26T04:43:40.745Z,71.80
2022-11-26T04:46:43.660Z,74.37
2022-11-26T04:49:47.947Z,79.00
2022-11-26T04:52:50.876Z,60.93
2022-11-26T04:55:54.331Z,61.60
2022-11-26T04:58:57.238Z,69.83
2022-11-26T05:02:00.369Z,61.40
2022-11-26T05:05:04.969Z,56.20
2022-11-26T05:08:08.028Z,56.70
2022-11-26T05:11:10.902Z,61.83
2022-11-26T05:14:13.808Z,59.20
2022-11-26T05:17:16.734Z,55.03
2022-11-26T05:20:21.202Z,49.10
2022-11-26T05:23:24.132Z,55.13
2022-11-26T05:26:27.385Z,57.13
2022-11-26T05:29:31.706Z,54.13
2022-11-26T05:32:34.629Z,51.23
2022-11-26T05:35:39.352Z,45.87
2022-11-26T05:38:42.319Z,45.73
2022-11-26T05:41:45.234Z,43.10
2022-11-26T05:44:48.111Z,41.03
2022-11-26T05:47:51.018Z,40.00
2022-11-26T05:50:59.898Z,38.87
2022-11-26T05:54:02.963Z,46.57
2022-11-26T05:57:05.957Z,36.57
2022-11-26T06:00:10.487Z,43.77
2022-11-26T06:03:17.056Z,36.23
2022-11-26T06:06:24.417Z,37.33
2022-11-26T06:09:27.361Z,35.37
2022-11-26T06:12:30.331Z,37.23
2022-11-26T06:15:33.256Z,35.80
2022-11-26T06:18:37.783Z,39.70
2022-11-26T06:21:42.117Z,35.37
2022-11-26T06:24:45.037Z,36.43
2022-11-26T06:27:48.055Z,41.33
2022-11-26T06:30:51.091Z,46.77
2022-11-26T06:33:55.145Z,33.93
2022-11-26T06:37:00.596Z,38.40
2022-11-26T06:40:03.751Z,43.17
2022-11-26T06:43:06.665Z,35.97
2022-11-26T06:46:11.146Z,40.83
2022-11-26T06:49:14.124Z,35.57
2022-11-26T06:52:18.403Z,37.40
2022-11-26T06:55:21.843Z,32.97
2022-11-26T06:58:26.231Z,37.60
2022-11-26T07:01:29.441Z,35.30
2022-11-26T07:04:32.437Z,34.00
2022-11-26T07:07:39.292Z,40.20
2022-11-26T07:10:47.509Z,38.77
2022-11-26T07:13:52.339Z,34.30
2022-11-26T07:16:55.232Z,35.63
2022-11-26T07:19:58.261Z,35.70
2022-11-26T07:23:04.555Z,41.13
2022-11-26T07:26:09.059Z,34.77
2022-11-26T07:29:11.999Z,30.53
2022-11-26T07:32:14.962Z,37.53
2022-11-26T07:35:17.991Z,34.93
2022-11-26T07:38:22.316Z,39.30
2022-11-26T07:41:26.105Z,42.20
2022-11-26T07:44:29.014Z,45.97
2022-11-26T07:47:31.931Z,38.53
2022-11-26T07:50:34.796Z,37.83
2022-11-26T07:53:39.073Z,38.63
2022-11-26T07:56:43.465Z,34.37
2022-11-26T07:59:46.356Z,27.63
2022-11-26T08:02:49.289Z,38.27
2022-11-26T08:05:52.278Z,26.80
2022-11-26T08:08:56.757Z,32.07
2022-11-26T08:11:59.678Z,30.93
2022-11-26T08:15:02.711Z,27.10
2022-11-26T08:18:05.749Z,24.73
2022-11-26T08:21:08.837Z,27.50
2022-11-26T08:24:15.774Z,25.60
2022-11-26T08:27:18.707Z,24.17
2022-11-26T08:30:21.824Z,28.27
2022-11-26T08:33:24.757Z,28.70
2022-11-26T08:36:28.473Z,25.10
2022-11-26T08:39:32.847Z,25.43
2022-11-26T08:42:35.799Z,23.47
2022-11-26T08:45:38.724Z,26.60
2022-11-26T08:48:42.207Z,28.90
2022-11-26T08:51:45.387Z,23.83
2022-11-26T08:54:49.848Z,23.33
2022-11-26T08:57:53.107Z,21.17
2022-11-26T09:00:56.790Z,21.47
2022-11-26T09:04:01.443Z,19.70
2022-11-26T09:07:04.367Z,29.03
2022-11-26T09:10:10.100Z,20.80
2022-11-26T09:13:15.143Z,22.27
2022-11-26T09:16:20.431Z,24.80
2022-11-26T09:19:23.557Z,22.40
2022-11-26T09:22:26.524Z,19.13
2022-11-26T09:25:30.819Z,23.73
2022-11-26T09:28:33.774Z,24.73
2022-11-26T09:31:42.742Z,21.07
2022-11-26T09:34:58.144Z,29.40
2022-11-26T09:38:01.080Z,19.13
2022-11-26T09:41:11.374Z,22.23
2022-11-26T09:44:26.959Z,30.27
2022-11-26T09:47:34.395Z,29.83
2022-11-26T09:50:38.567Z,30.27
2022-11-26T09:53:45.118Z,19.90
2022-11-26T09:56:51.396Z,25.23
2022-11-26T09:59:56.468Z,26.80
2022-11-26T10:02:59.951Z,20.77
2022-11-26T10:06:07.490Z,27.07
2022-11-26T10:09:41.004Z,25.37
2022-11-26T10:13:17.487Z,18.57
2022-11-26T10:16:25.227Z,16.43
2022-11-26T10:19:33.724Z,23.40
2022-11-26T10:22:43.634Z,19.83
2022-11-26T10:25:50.675Z,22.50
2022-11-26T10:29:07.422Z,19.00
2022-11-26T10:32:15.961Z,15.23
2022-11-26T10:35:21.523Z,19.80
2022-11-26T10:38:24.420Z,11.63
2022-11-26T10:41:31.290Z,12.30
2022-11-26T10:44:40.373Z,13.43
2022-11-26T10:47:43.575Z,20.43
2022-11-26T10:51:00.277Z,20.87
2022-11-26T10:54:07.466Z,24.73
2022-11-26T10:57:16.437Z,16.47
2022-11-26T11:00:45.706Z,15.90
2022-11-26T11:04:08.497Z,25.53
2022-11-26T11:07:30.936Z,21.57
2022-11-26T11:10:35.515Z,22.27
2022-11-26T11:13:42.917Z,16.37
2022-11-26T11:16:47.294Z,25.27
2022-11-26T11:19:50.402Z,20.00
2022-11-26T11:23:06.697Z,13.80
2022-11-26T11:26:16.725Z,15.40
2022-11-26T11:29:32.703Z,19.23
2022-11-26T11:32:40.169Z,12.93
2022-11-26T11:35:43.339Z,16.90
2022-11-26T11:38:48.900Z,14.87
2022-11-26T11:41:52.100Z,16.57
2022-11-26T11:44:55.258Z,16.43
2022-11-26T11:48:06.891Z,11.57
2022-11-26T11:51:17.475Z,18.77
2022-11-26T11:54:26.002Z,17.27
2022-11-26T11:57:43.342Z,20.27
2022-11-26T12:00:53.408Z,14.27
2022-11-26T12:04:19.946Z,16.10
2022-11-26T12:07:38.410Z,17.40
2022-11-26T12:10:51.238Z,18.23
2022-11-26T12:13:58.616Z,15.07
2022-11-26T12:17:07.506Z,12.67
2022-11-26T12:20:21.093Z,18.03
2022-11-26T12:23:30.793Z,15.07
2022-11-26T12:26:38.266Z,13.23
2022-11-26T12:29:46.751Z,11.93
2022-11-26T12:32:54.681Z,10.97
2022-11-26T12:36:04.675Z,18.43
2022-11-26T12:39:19.086Z,14.70
2022-11-26T12:42:29.123Z,18.00
2022-11-26T12:45:47.848Z,13.00
2022-11-26T12:48:55.893Z,12.53
2022-11-26T12:52:18.421Z,18.77
2022-11-26T12:55:29.182Z,18.00
2022-11-26T12:58:40.476Z,15.93
2022-11-26T13:01:43.414Z,16.63
2022-11-26T13:04:46.491Z,17.50
2022-11-26T13:08:05.438Z,19.03
2022-11-26T13:11:25.149Z,20.27
2022-11-26T13:14:41.403Z,18.33
2022-11-26T13:17:48.706Z,18.67
2022-11-26T13:21:05.199Z,19.00
2022-11-26T13:24:34.075Z,20.67
2022-11-26T13:27:50.484Z,26.33
2022-11-26T13:31:06.794Z,22.13
2022-11-26T13:34:32.434Z,17.60
2022-11-26T13:37:50.039Z,20.60
2022-11-26T13:41:32.077Z,16.80
2022-11-26T13:45:12.633Z,19.43
2022-11-26T13:48:18.394Z,17.03
2022-11-26T13:51:32.154Z,22.87
2022-11-26T13:54:39.554Z,16.63
2022-11-26T13:57:47.584Z,17.53
2022-11-26T14:00:50.633Z,15.43
2022-11-26T14:03:53.629Z,14.33
2022-11-26T14:07:19.922Z,16.90
2022-11-26T14:10:44.285Z,20.03
2022-11-26T14:14:29.459Z,15.73
2022-11-26T14:17:52.470Z,15.27
2022-11-26T14:21:13.212Z,15.40
2022-11-26T14:24:55.165Z,13.70
2022-11-26T14:27:59.563Z,18.00
2022-11-26T14:31:15.237Z,16.90
2022-11-26T14:34:25.685Z,18.10
2022-11-26T14:37:30.556Z,15.23
2022-11-26T14:40:35.184Z,10.80
2022-11-26T14:43:38.310Z,13.23
2022-11-26T14:46:44.396Z,17.60
2022-11-26T14:49:54.183Z,15.30
2022-11-26T14:53:00.810Z,12.90
2022-11-26T14:56:04.336Z,14.43
2022-11-26T14:59:12.472Z,18.50
2022-11-26T15:02:24.052Z,22.43
2022-11-26T15:05:28.915Z,18.03
2022-11-26T15:08:31.805Z,19.03
2022-11-26T15:11:37.745Z,20.47
2022-11-26T15:14:43.817Z,17.13
2022-11-26T15:17:53.044Z,22.43
2022-11-26T15:20:56.884Z,26.33
2022-11-26T15:24:03.454Z,32.27
2022-11-26T15:27:06.335Z,26.63
2022-11-26T15:30:21.216Z,27.07
2022-11-26T15:33:26.672Z,33.90
2022-11-26T15:36:29.631Z,32.03
2022-11-26T15:39:32.942Z,34.30
2022-11-26T15:42:36.185Z,31.67
2022-11-26T15:45:41.644Z,28.23
2022-11-26T15:48:53.198Z,31.07
2022-11-26T15:51:59.189Z,35.13
2022-11-26T15:55:13.636Z,33.63
2022-11-26T15:58:22.707Z,26.97
2022-11-26T16:01:28.348Z,29.70
2022-11-26T16:04:45.515Z,29.53
2022-11-26T16:07:58.638Z,26.97
2022-11-26T16:11:08.632Z,24.00
2022-11-26T16:14:29.046Z,20.90
2022-11-26T16:17:32.006Z,24.93
2022-11-26T16:20:36.344Z,23.37
2022-11-26T16:23:39.381Z,20.77
2022-11-26T16:26:54.824Z,17.17
2022-11-26T16:29:57.811Z,17.97
2022-11-26T16:33:00.746Z,22.07
2022-11-26T16:36:22.698Z,18.07
2022-11-26T16:39:30.035Z,23.23
2022-11-26T16:42:33.811Z,18.77
2022-11-26T16:45:36.980Z,14.93
2022-11-26T16:48:41.236Z,14.63
2022-11-26T16:51:45.471Z,9.53
2022-11-26T16:54:49.039Z,13.10
2022-11-26T16:57:53.753Z,24.60
2022-11-26T17:00:57.799Z,22.53
2022-11-26T17:04:00.732Z,15.80
2022-11-26T17:07:04.990Z,19.07
2022-11-26T17:10:12.097Z,16.40
2022-11-26T17:13:15.088Z,16.90
2022-11-26T17:16:20.551Z,18.07
2022-11-26T17:19:23.778Z,13.87
2022-11-26T17:22:28.078Z,19.10
2022-11-26T17:25:31.044Z,9.87
2022-11-26T17:28:33.970Z,15.13
2022-11-26T17:31:37.343Z,18.80
2022-11-26T17:34:40.312Z,16.70
2022-11-26T17:37:44.931Z,23.67
2022-11-26T17:40:49.297Z,12.23
2022-11-26T17:43:52.226Z,14.50
2022-11-26T17:50:21.686Z,22.23
2022-11-26T17:53:25.942Z,20.83
2022-11-26T17:56:29.006Z,12.07
2022-11-26T17:59:32.510Z,22.83
2022-11-26T18:02:35.483Z,17.97
2022-11-26T18:05:42.047Z,31.80
2022-11-26T18:08:47.147Z,28.53
2022-11-26T18:11:53.247Z,27.23
2022-11-26T18:14:57.690Z,27.63
2022-11-26T18:18:00.684Z,24.80
2022-11-26T18:21:04.172Z,29.00
2022-11-26T18:24:10.737Z,37.77
2022-11-26T18:27:13.789Z,37.97
2022-11-26T18:30:17.791Z,25.93
2022-11-26T18:33:20.736Z,24.00
2022-11-26T18:36:23.842Z,28.33
2022-11-26T18:39:28.145Z,22.10
2022-11-26T18:42:38.682Z,25.90
2022-11-26T18:45:43.144Z,25.73
2022-11-26T18:48:47.865Z,24.93
2022-11-26T18:51:50.824Z,27.57
2022-11-26T18:54:55.103Z,36.67
2022-11-26T18:57:58.017Z,26.23
2022-11-26T19:01:00.996Z,21.90
2022-11-26T19:04:04.284Z,20.03
2022-11-26T19:07:07.196Z,38.50
2022-11-26T19:10:12.734Z,33.33
2022-11-26T19:13:15.850Z,29.90
2022-11-26T19:16:22.536Z,42.43
2022-11-26T19:19:27.327Z,42.57
2022-11-26T19:22:30.311Z,41.00
2022-11-26T19:25:34.614Z,30.10
2022-11-26T19:28:37.586Z,33.73
2022-11-26T19:31:40.683Z,41.67
2022-11-26T19:34:43.620Z,42.83
2022-11-26T19:37:46.779Z,33.40
2022-11-26T19:40:56.894Z,38.50
2022-11-26T19:44:01.301Z,39.23
2022-11-26T19:47:04.557Z,29.63
2022-11-26T19:50:09.333Z,38.87
2022-11-26T19:53:12.276Z,34.10
2022-11-26T19:56:18.906Z,37.23
2022-11-26T19:59:22.040Z,38.87
2022-11-26T20:02:25.086Z,42.10
2022-11-26T20:05:28.112Z,48.83
2022-11-26T20:08:31.053Z,35.47
2022-11-26T20:11:38.401Z,31.70
2022-11-26T20:14:41.309Z,35.60
2022-11-26T20:17:44.226Z,36.63
2022-11-26T20:20:58.332Z,26.50
2022-11-26T20:24:02.864Z,35.20
2022-11-26T20:27:07.144Z,37.30
2022-11-26T20:30:11.369Z,32.33
2022-11-26T20:33:15.734Z,26.57
2022-11-26T20:36:20.956Z,35.83
2022-11-26T20:39:24.997Z,26.20
2022-11-26T20:42:29.373Z,28.07
2022-11-26T20:45:32.398Z,20.80
2022-11-26T20:48:37.188Z,34.20
2022-11-26T20:51:40.330Z,47.93
2022-11-26T20:54:43.219Z,40.87
2022-11-26T20:57:47.924Z,42.53
2022-11-26T21:00:51.036Z,27.23
2022-11-26T21:03:55.317Z,35.20
2022-11-26T21:06:58.237Z,23.80
2022-11-26T21:10:01.195Z,45.13
2022-11-26T21:13:05.468Z,39.57
2022-11-26T21:16:12.981Z,33.60
2022-11-26T21:19:16.123Z,34.37
2022-11-26T21:22:19.054Z,31.07
2022-11-26T21:25:21.930Z,32.27
2022-11-26T21:28:26.200Z,32.10
2022-11-26T21:31:31.163Z,40.10
2022-11-26T21:34:34.383Z,34.23
2022-11-26T21:37:37.303Z,32.27
2022-11-26T21:40:40.228Z,31.00
2022-11-26T21:43:45.583Z,38.17
2022-11-26T21:46:49.016Z,23.37
2022-11-26T21:49:52.022Z,30.87
2022-11-26T21:52:54.966Z,38.13
2022-11-26T21:55:57.836Z,35.23
2022-11-26T21:59:02.998Z,29.00
2022-11-26T22:02:06.275Z,33.30
2022-11-26T22:05:09.480Z,34.00
2022-11-26T22:08:12.503Z,38.13
2022-11-26T22:11:18.512Z,39.87
2022-11-26T22:14:23.076Z,44.53
2022-11-26T22:17:26.572Z,40.10
2022-11-26T22:20:29.503Z,31.60
2022-11-26T22:23:32.445Z,36.80
2022-11-26T22:26:35.854Z,37.27
2022-11-26T22:29:40.205Z,45.93
2022-11-26T22:32:43.298Z,36.40
2022-11-26T22:35:46.195Z,31.57
2022-11-26T22:38:49.143Z,40.27
2022-11-26T22:41:54.334Z,39.77
2022-11-26T22:44:58.648Z,35.50
2022-11-26T22:48:01.507Z,42.67
2022-11-26T22:51:04.590Z,45.73
2022-11-26T22:54:08.857Z,36.33
2022-11-26T22:57:11.804Z,28.03
2022-11-26T23:00:47.665Z,40.80
2022-11-26T23:03:51.185Z,38.83
2022-11-26T23:06:54.138Z,38.33
2022-11-26T23:09:57.108Z,32.40
2022-11-26T23:13:00.067Z,40.47
2022-11-26T23:16:07.399Z,29.77
2022-11-26T23:19:11.968Z,38.70
2022-11-26T23:22:14.905Z,31.87
2022-11-26T23:25:18.090Z,36.37
2022-11-26T23:28:20.975Z,38.10
2022-11-26T23:31:27.122Z,28.00
2022-11-26T23:34:30.225Z,32.13
2022-11-26T23:37:33.247Z,34.80
2022-11-26T23:40:36.146Z,24.87
2022-11-26T23:43:39.966Z,30.13
2022-11-26T23:46:44.354Z,29.10
2022-11-26T23:49:47.296Z,46.60
2022-11-26T23:52:50.184Z,46.00
2022-11-26T23:55:53.179Z,33.67
2022-11-26T23:58:57.870Z,27.73
